sensor_id;sensor_type;location;lat;lon;timestamp;pressure;altitude;pressure_sealevel;temperature;humidity
80986;BME280;70451;51.226;6.412;2023-07-13T00:01:42;100839.91;;;15.09;78.03
80986;BME280;70451;51.226;6.412;2023-07-13T00:03:58;100836.00;;;15.02;77.80
80986;BME280;70451;51.226;6.412;2023-07-13T00:06:13;100844.75;;;15.02;77.85
80986;BME280;70451;51.226;6.412;2023-07-13T00:08:30;100850.94;;;15.01;78.10
80986;BME280;70451;51.226;6.412;2023-07-13T00:10:47;100847.47;;;15.01;78.21
80986;BME280;70451;51.226;6.412;2023-07-13T00:13:03;100842.44;;;14.98;78.05
80986;BME280;70451;51.226;6.412;2023-07-13T00:15:23;100851.25;;;14.97;78.33
80986;BME280;70451;51.226;6.412;2023-07-13T00:17:39;100859.88;;;14.99;78.13
80986;BME280;70451;51.226;6.412;2023-07-13T00:19:56;100849.47;;;14.97;78.37
80986;BME280;70451;51.226;6.412;2023-07-13T00:22:11;100847.97;;;14.93;78.11
80986;BME280;70451;51.226;6.412;2023-07-13T00:24:27;100852.78;;;14.86;78.65
80986;BME280;70451;51.226;6.412;2023-07-13T00:26:42;100843.34;;;14.84;78.83
80986;BME280;70451;51.226;6.412;2023-07-13T00:29:00;100839.75;;;14.85;79.11
80986;BME280;70451;51.226;6.412;2023-07-13T00:31:16;100848.47;;;14.85;79.21
80986;BME280;70451;51.226;6.412;2023-07-13T00:33:31;100846.81;;;14.84;79.13
80986;BME280;70451;51.226;6.412;2023-07-13T00:35:48;100848.03;;;14.79;79.16
80986;BME280;70451;51.226;6.412;2023-07-13T00:38:04;100847.00;;;14.81;79.41
80986;BME280;70451;51.226;6.412;2023-07-13T00:40:19;100846.25;;;14.79;79.54
80986;BME280;70451;51.226;6.412;2023-07-13T00:42:36;100849.81;;;14.78;79.34
80986;BME280;70451;51.226;6.412;2023-07-13T00:47:28;100849.38;;;14.72;79.42
80986;BME280;70451;51.226;6.412;2023-07-13T00:49:44;100849.88;;;14.64;79.47
80986;BME280;70451;51.226;6.412;2023-07-13T00:52:03;100849.16;;;14.62;80.38
80986;BME280;70451;51.226;6.412;2023-07-13T00:54:26;100845.19;;;14.69;80.24
80986;BME280;70451;51.226;6.412;2023-07-13T00:56:45;100848.75;;;14.68;80.15
80986;BME280;70451;51.226;6.412;2023-07-13T00:59:03;100855.88;;;14.66;80.48
80986;BME280;70451;51.226;6.412;2023-07-13T01:03:38;100849.03;;;14.64;80.68
80986;BME280;70451;51.226;6.412;2023-07-13T01:05:55;100851.88;;;14.61;80.26
80986;BME280;70451;51.226;6.412;2023-07-13T01:08:11;100853.56;;;14.62;80.56
80986;BME280;70451;51.226;6.412;2023-07-13T01:10:26;100858.38;;;14.55;81.09
80986;BME280;70451;51.226;6.412;2023-07-13T01:12:42;100850.69;;;14.52;80.88
80986;BME280;70451;51.226;6.412;2023-07-13T01:14:58;100845.34;;;14.54;80.80
80986;BME280;70451;51.226;6.412;2023-07-13T01:17:15;100846.28;;;14.53;81.09
80986;BME280;70451;51.226;6.412;2023-07-13T01:19:38;100848.44;;;14.46;81.02
80986;BME280;70451;51.226;6.412;2023-07-13T01:21:54;100846.84;;;14.43;81.54
80986;BME280;70451;51.226;6.412;2023-07-13T01:24:10;100848.44;;;14.46;80.92
80986;BME280;70451;51.226;6.412;2023-07-13T01:26:25;100851.63;;;14.37;81.61
80986;BME280;70451;51.226;6.412;2023-07-13T01:28:41;100848.09;;;14.38;81.29
80986;BME280;70451;51.226;6.412;2023-07-13T01:30:58;100847.16;;;14.39;81.39
80986;BME280;70451;51.226;6.412;2023-07-13T01:33:15;100847.06;;;14.26;80.59
80986;BME280;70451;51.226;6.412;2023-07-13T01:35:31;100846.69;;;14.32;81.26
80986;BME280;70451;51.226;6.412;2023-07-13T01:37:46;100848.28;;;14.35;81.50
80986;BME280;70451;51.226;6.412;2023-07-13T01:40:04;100851.72;;;14.35;81.36
80986;BME280;70451;51.226;6.412;2023-07-13T01:42:19;100843.78;;;14.23;81.08
80986;BME280;70451;51.226;6.412;2023-07-13T01:44:35;100842.53;;;14.28;81.47
80986;BME280;70451;51.226;6.412;2023-07-13T01:46:50;100847.06;;;14.26;82.09
80986;BME280;70451;51.226;6.412;2023-07-13T01:49:05;100852.22;;;14.28;82.00
80986;BME280;70451;51.226;6.412;2023-07-13T01:51:21;100847.91;;;14.27;82.39
80986;BME280;70451;51.226;6.412;2023-07-13T01:53:36;100847.78;;;14.28;82.01
80986;BME280;70451;51.226;6.412;2023-07-13T01:55:51;100849.69;;;14.26;82.11
80986;BME280;70451;51.226;6.412;2023-07-13T01:58:07;100841.16;;;14.23;82.38
80986;BME280;70451;51.226;6.412;2023-07-13T02:00:22;100849.03;;;14.23;82.37
80986;BME280;70451;51.226;6.412;2023-07-13T02:02:38;100857.00;;;14.21;82.23
80986;BME280;70451;51.226;6.412;2023-07-13T02:04:53;100848.66;;;14.15;81.50
80986;BME280;70451;51.226;6.412;2023-07-13T02:07:09;100861.50;;;14.19;83.02
80986;BME280;70451;51.226;6.412;2023-07-13T02:09:24;100855.34;;;14.20;82.82
80986;BME280;70451;51.226;6.412;2023-07-13T02:11:39;100852.03;;;14.17;82.25
80986;BME280;70451;51.226;6.412;2023-07-13T02:13:55;100858.63;;;14.09;81.76
80986;BME280;70451;51.226;6.412;2023-07-13T02:16:10;100866.47;;;14.09;82.53
80986;BME280;70451;51.226;6.412;2023-07-13T02:18:26;100858.44;;;14.13;82.92
80986;BME280;70451;51.226;6.412;2023-07-13T02:20:41;100863.69;;;14.13;82.89
80986;BME280;70451;51.226;6.412;2023-07-13T02:22:56;100854.22;;;14.10;82.71
80986;BME280;70451;51.226;6.412;2023-07-13T02:25:11;100851.13;;;14.03;82.88
80986;BME280;70451;51.226;6.412;2023-07-13T02:27:27;100855.22;;;14.07;82.64
80986;BME280;70451;51.226;6.412;2023-07-13T02:29:43;100858.34;;;14.00;83.05
80986;BME280;70451;51.226;6.412;2023-07-13T02:31:58;100857.53;;;13.99;83.49
80986;BME280;70451;51.226;6.412;2023-07-13T02:34:14;100855.63;;;14.01;82.50
80986;BME280;70451;51.226;6.412;2023-07-13T02:36:30;100862.47;;;14.04;83.12
80986;BME280;70451;51.226;6.412;2023-07-13T02:38:45;100860.69;;;14.04;83.01
80986;BME280;70451;51.226;6.412;2023-07-13T02:41:00;100864.16;;;14.05;83.05
80986;BME280;70451;51.226;6.412;2023-07-13T02:43:16;100865.19;;;14.02;83.00
80986;BME280;70451;51.226;6.412;2023-07-13T02:45:31;100866.19;;;14.00;83.70
80986;BME280;70451;51.226;6.412;2023-07-13T02:47:47;100862.00;;;13.97;83.46
80986;BME280;70451;51.226;6.412;2023-07-13T02:50:02;100861.34;;;13.94;83.48
80986;BME280;70451;51.226;6.412;2023-07-13T02:52:18;100863.13;;;13.93;84.37
80986;BME280;70451;51.226;6.412;2023-07-13T02:54:33;100860.97;;;13.86;84.07
80986;BME280;70451;51.226;6.412;2023-07-13T02:56:49;100867.81;;;13.88;83.57
80986;BME280;70451;51.226;6.412;2023-07-13T02:59:04;100875.75;;;13.87;84.54
80986;BME280;70451;51.226;6.412;2023-07-13T03:01:19;100866.41;;;13.97;84.03
80986;BME280;70451;51.226;6.412;2023-07-13T03:03:36;100866.41;;;13.97;84.19
80986;BME280;70451;51.226;6.412;2023-07-13T03:06:01;100863.41;;;13.89;83.68
80986;BME280;70451;51.226;6.412;2023-07-13T03:08:18;100861.53;;;13.91;84.31
80986;BME280;70451;51.226;6.412;2023-07-13T03:10:33;100861.25;;;13.81;84.29
80986;BME280;70451;51.226;6.412;2023-07-13T03:12:49;100860.25;;;13.84;84.67
80986;BME280;70451;51.226;6.412;2023-07-13T03:15:05;100867.06;;;13.86;84.87
80986;BME280;70451;51.226;6.412;2023-07-13T03:17:20;100866.78;;;13.91;84.35
80986;BME280;70451;51.226;6.412;2023-07-13T03:19:35;100871.38;;;13.87;84.75
80986;BME280;70451;51.226;6.412;2023-07-13T03:21:51;100870.81;;;13.82;83.98
80986;BME280;70451;51.226;6.412;2023-07-13T03:24:07;100872.59;;;13.82;84.33
80986;BME280;70451;51.226;6.412;2023-07-13T03:26:22;100875.97;;;13.84;84.64
80986;BME280;70451;51.226;6.412;2023-07-13T03:28:37;100874.84;;;13.88;84.99
80986;BME280;70451;51.226;6.412;2023-07-13T03:31:09;100881.00;;;13.87;84.43
80986;BME280;70451;51.226;6.412;2023-07-13T03:33:25;100881.69;;;13.90;84.74
80986;BME280;70451;51.226;6.412;2023-07-13T03:35:40;100874.75;;;13.89;84.67
80986;BME280;70451;51.226;6.412;2023-07-13T03:37:56;100881.59;;;13.92;84.34
80986;BME280;70451;51.226;6.412;2023-07-13T03:40:13;100880.38;;;13.97;84.44
80986;BME280;70451;51.226;6.412;2023-07-13T03:42:28;100885.53;;;13.99;84.94
80986;BME280;70451;51.226;6.412;2023-07-13T03:44:44;100891.72;;;13.98;84.10
80986;BME280;70451;51.226;6.412;2023-07-13T03:47:06;100891.72;;;13.98;84.53
80986;BME280;70451;51.226;6.412;2023-07-13T03:49:21;100889.09;;;13.98;84.95
80986;BME280;70451;51.226;6.412;2023-07-13T03:51:36;100902.47;;;13.93;84.73
80986;BME280;70451;51.226;6.412;2023-07-13T03:53:52;100895.63;;;13.91;84.63
80986;BME280;70451;51.226;6.412;2023-07-13T03:56:08;100901.44;;;13.96;84.91
80986;BME280;70451;51.226;6.412;2023-07-13T04:00:42;100902.84;;;14.01;84.52
80986;BME280;70451;51.226;6.412;2023-07-13T04:02:57;100906.13;;;14.05;84.71
80986;BME280;70451;51.226;6.412;2023-07-13T04:05:12;100900.88;;;14.05;84.72
80986;BME280;70451;51.226;6.412;2023-07-13T04:07:27;100903.31;;;14.08;85.51
80986;BME280;70451;51.226;6.412;2023-07-13T04:09:43;100915.03;;;14.02;85.14
80986;BME280;70451;51.226;6.412;2023-07-13T04:11:58;100914.25;;;14.00;84.91
80986;BME280;70451;51.226;6.412;2023-07-13T04:14:13;100907.63;;;14.09;84.87
80986;BME280;70451;51.226;6.412;2023-07-13T04:16:29;100908.75;;;14.19;85.05
80986;BME280;70451;51.226;6.412;2023-07-13T04:18:45;100909.75;;;14.31;84.62
80986;BME280;70451;51.226;6.412;2023-07-13T04:21:01;100913.78;;;14.36;84.82
80986;BME280;70451;51.226;6.412;2023-07-13T04:23:16;100912.91;;;14.36;84.67
80986;BME280;70451;51.226;6.412;2023-07-13T04:25:32;100917.00;;;14.41;84.00
80986;BME280;70451;51.226;6.412;2023-07-13T04:27:47;100915.09;;;14.29;84.13
80986;BME280;70451;51.226;6.412;2023-07-13T04:30:03;100920.34;;;14.43;84.42
80986;BME280;70451;51.226;6.412;2023-07-13T04:32:18;100910.88;;;14.55;84.01
80986;BME280;70451;51.226;6.412;2023-07-13T04:34:33;100918.72;;;14.69;83.45
80986;BME280;70451;51.226;6.412;2023-07-13T04:36:50;100919.88;;;14.78;83.06
80986;BME280;70451;51.226;6.412;2023-07-13T04:39:05;100923.53;;;14.89;83.11
80986;BME280;70451;51.226;6.412;2023-07-13T04:41:21;100926.00;;;15.05;83.48
80986;BME280;70451;51.226;6.412;2023-07-13T04:43:37;100925.59;;;15.11;82.84
80986;BME280;70451;51.226;6.412;2023-07-13T04:45:52;100925.50;;;15.13;82.62
80986;BME280;70451;51.226;6.412;2023-07-13T04:48:08;100920.00;;;15.03;81.65
80986;BME280;70451;51.226;6.412;2023-07-13T04:50:23;100922.88;;;15.13;82.56
80986;BME280;70451;51.226;6.412;2023-07-13T04:52:39;100919.13;;;15.29;81.83
80986;BME280;70451;51.226;6.412;2023-07-13T04:54:54;100921.84;;;15.28;81.04
80986;BME280;70451;51.226;6.412;2023-07-13T04:57:09;100919.88;;;15.32;81.51
80986;BME280;70451;51.226;6.412;2023-07-13T04:59:25;100926.06;;;15.31;81.49
80986;BME280;70451;51.226;6.412;2023-07-13T05:01:40;100922.91;;;15.38;81.37
80986;BME280;70451;51.226;6.412;2023-07-13T05:03:56;100919.69;;;15.47;80.18
80986;BME280;70451;51.226;6.412;2023-07-13T05:06:13;100925.31;;;15.55;80.07
80986;BME280;70451;51.226;6.412;2023-07-13T05:08:29;100930.16;;;15.61;79.20
80986;BME280;70451;51.226;6.412;2023-07-13T05:10:44;100935.84;;;15.68;80.19
80986;BME280;70451;51.226;6.412;2023-07-13T05:12:59;100935.72;;;15.70;79.35
80986;BME280;70451;51.226;6.412;2023-07-13T05:15:15;100935.41;;;15.74;79.74
80986;BME280;70451;51.226;6.412;2023-07-13T05:17:31;100937.63;;;15.80;79.22
80986;BME280;70451;51.226;6.412;2023-07-13T05:19:46;100936.88;;;15.78;79.41
80986;BME280;70451;51.226;6.412;2023-07-13T05:22:02;100935.84;;;15.81;79.10
80986;BME280;70451;51.226;6.412;2023-07-13T05:24:19;100938.97;;;15.86;79.72
80986;BME280;70451;51.226;6.412;2023-07-13T05:26:34;100942.03;;;15.92;78.94
80986;BME280;70451;51.226;6.412;2023-07-13T05:28:50;100948.47;;;16.01;78.91
80986;BME280;70451;51.226;6.412;2023-07-13T05:31:07;100943.59;;;16.08;78.81
80986;BME280;70451;51.226;6.412;2023-07-13T05:33:24;100944.69;;;16.05;78.85
80986;BME280;70451;51.226;6.412;2023-07-13T05:35:39;100944.34;;;16.10;78.64
80986;BME280;70451;51.226;6.412;2023-07-13T05:37:55;100950.97;;;16.15;77.96
80986;BME280;70451;51.226;6.412;2023-07-13T05:40:10;100951.94;;;16.27;79.26
80986;BME280;70451;51.226;6.412;2023-07-13T05:42:26;100947.19;;;16.19;78.10
80986;BME280;70451;51.226;6.412;2023-07-13T05:44:41;100956.56;;;16.23;78.67
80986;BME280;70451;51.226;6.412;2023-07-13T05:46:56;100961.94;;;16.09;77.92
80986;BME280;70451;51.226;6.412;2023-07-13T05:49:12;100961.88;;;16.34;78.61
80986;BME280;70451;51.226;6.412;2023-07-13T05:51:27;100964.28;;;16.50;77.34
80986;BME280;70451;51.226;6.412;2023-07-13T05:53:42;100973.13;;;16.74;77.04
80986;BME280;70451;51.226;6.412;2023-07-13T05:55:58;100974.28;;;16.70;77.09
80986;BME280;70451;51.226;6.412;2023-07-13T05:58:13;100964.13;;;16.90;76.94
80986;BME280;70451;51.226;6.412;2023-07-13T06:00:29;100971.19;;;16.89;77.36
80986;BME280;70451;51.226;6.412;2023-07-13T06:02:44;100973.75;;;17.02;76.93
80986;BME280;70451;51.226;6.412;2023-07-13T06:04:59;100980.75;;;17.14;77.55
80986;BME280;70451;51.226;6.412;2023-07-13T06:07:14;100987.34;;;17.32;75.99
80986;BME280;70451;51.226;6.412;2023-07-13T06:09:30;100991.25;;;17.27;76.33
80986;BME280;70451;51.226;6.412;2023-07-13T06:11:45;100985.19;;;17.13;76.16
80986;BME280;70451;51.226;6.412;2023-07-13T06:14:00;100991.38;;;17.25;76.55
80986;BME280;70451;51.226;6.412;2023-07-13T06:16:16;100990.25;;;17.16;76.60
80986;BME280;70451;51.226;6.412;2023-07-13T06:18:33;100992.00;;;17.05;77.04
80986;BME280;70451;51.226;6.412;2023-07-13T06:20:49;100991.47;;;17.00;76.75
80986;BME280;70451;51.226;6.412;2023-07-13T06:23:04;100995.28;;;16.96;77.80
80986;BME280;70451;51.226;6.412;2023-07-13T06:25:19;100988.34;;;16.95;77.36
80986;BME280;70451;51.226;6.412;2023-07-13T06:27:35;100989.56;;;17.02;77.74
80986;BME280;70451;51.226;6.412;2023-07-13T06:29:50;101001.97;;;16.89;78.98
80986;BME280;70451;51.226;6.412;2023-07-13T06:32:06;101001.88;;;16.77;77.61
80986;BME280;70451;51.226;6.412;2023-07-13T06:34:21;101007.03;;;16.79;78.33
80986;BME280;70451;51.226;6.412;2023-07-13T06:36:37;101007.59;;;16.71;78.47
80986;BME280;70451;51.226;6.412;2023-07-13T06:38:53;101014.09;;;16.78;78.00
80986;BME280;70451;51.226;6.412;2023-07-13T06:41:08;101016.16;;;16.99;77.91
80986;BME280;70451;51.226;6.412;2023-07-13T06:43:24;101010.50;;;17.16;76.96
80986;BME280;70451;51.226;6.412;2023-07-13T06:45:45;101015.78;;;17.40;76.91
80986;BME280;70451;51.226;6.412;2023-07-13T06:48:05;101015.31;;;17.70;76.14
80986;BME280;70451;51.226;6.412;2023-07-13T06:50:20;101020.75;;;17.55;76.07
80986;BME280;70451;51.226;6.412;2023-07-13T06:52:35;101024.53;;;17.64;76.59
80986;BME280;70451;51.226;6.412;2023-07-13T06:54:51;101018.91;;;17.45;75.78
80986;BME280;70451;51.226;6.412;2023-07-13T06:57:06;101029.69;;;17.42;76.25
80986;BME280;70451;51.226;6.412;2023-07-13T06:59:22;101023.16;;;17.58;76.48
80986;BME280;70451;51.226;6.412;2023-07-13T07:01:37;101027.22;;;17.51;76.11
80986;BME280;70451;51.226;6.412;2023-07-13T07:03:52;101027.06;;;17.66;76.80
80986;BME280;70451;51.226;6.412;2023-07-13T07:06:19;101025.59;;;17.96;74.83
80986;BME280;70451;51.226;6.412;2023-07-13T07:08:34;101028.41;;;18.17;74.17
80986;BME280;70451;51.226;6.412;2023-07-13T07:10:50;101032.00;;;18.27;74.06
80986;BME280;70451;51.226;6.412;2023-07-13T07:13:09;101024.31;;;18.35;73.23
80986;BME280;70451;51.226;6.412;2023-07-13T07:15:25;101028.50;;;18.27;74.24
80986;BME280;70451;51.226;6.412;2023-07-13T07:17:40;101031.41;;;18.35;73.83
80986;BME280;70451;51.226;6.412;2023-07-13T07:19:55;101028.50;;;18.16;74.02
80986;BME280;70451;51.226;6.412;2023-07-13T07:22:11;101033.91;;;18.03;73.87
80986;BME280;70451;51.226;6.412;2023-07-13T07:24:26;101036.06;;;18.09;74.15
80986;BME280;70451;51.226;6.412;2023-07-13T07:26:42;101045.09;;;18.18;74.10
80986;BME280;70451;51.226;6.412;2023-07-13T07:28:57;101039.41;;;18.00;73.34
80986;BME280;70451;51.226;6.412;2023-07-13T07:31:12;101039.41;;;18.00;74.34
80986;BME280;70451;51.226;6.412;2023-07-13T07:33:28;101038.44;;;18.12;74.42
80986;BME280;70451;51.226;6.412;2023-07-13T07:35:43;101039.56;;;18.43;73.55
80986;BME280;70451;51.226;6.412;2023-07-13T07:37:58;101041.31;;;18.66;72.98
80986;BME280;70451;51.226;6.412;2023-07-13T07:40:14;101039.91;;;19.05;72.63
80986;BME280;70451;51.226;6.412;2023-07-13T07:42:29;101039.50;;;18.89;72.96
80986;BME280;70451;51.226;6.412;2023-07-13T07:44:44;101034.81;;;18.82;72.66
80986;BME280;70451;51.226;6.412;2023-07-13T07:47:00;101041.63;;;18.84;72.80
80986;BME280;70451;51.226;6.412;2023-07-13T07:49:16;101041.03;;;18.69;73.08
80986;BME280;70451;51.226;6.412;2023-07-13T07:51:31;101047.06;;;18.60;72.68
80986;BME280;70451;51.226;6.412;2023-07-13T07:53:47;101043.47;;;18.61;73.05
80986;BME280;70451;51.226;6.412;2023-07-13T07:56:03;101044.41;;;18.71;73.35
80986;BME280;70451;51.226;6.412;2023-07-13T07:58:18;101045.22;;;18.83;73.24
80986;BME280;70451;51.226;6.412;2023-07-13T08:00:34;101045.38;;;18.70;73.97
80986;BME280;70451;51.226;6.412;2023-07-13T08:02:50;101044.66;;;18.80;73.10
80986;BME280;70451;51.226;6.412;2023-07-13T08:05:06;101044.28;;;18.62;74.27
80986;BME280;70451;51.226;6.412;2023-07-13T08:07:21;101045.47;;;18.69;73.12
80986;BME280;70451;51.226;6.412;2023-07-13T08:09:37;101042.97;;;18.78;74.04
80986;BME280;70451;51.226;6.412;2023-07-13T08:11:52;101044.16;;;18.63;73.72
80986;BME280;70451;51.226;6.412;2023-07-13T08:14:09;101037.31;;;18.72;73.73
80986;BME280;70451;51.226;6.412;2023-07-13T08:16:26;101046.69;;;18.87;73.49
80986;BME280;70451;51.226;6.412;2023-07-13T08:18:41;101033.22;;;19.01;72.41
80986;BME280;70451;51.226;6.412;2023-07-13T08:20:57;101048.69;;;19.17;72.20
80986;BME280;70451;51.226;6.412;2023-07-13T08:23:13;101045.66;;;19.22;72.56
80986;BME280;70451;51.226;6.412;2023-07-13T08:25:28;101041.16;;;19.44;70.88
80986;BME280;70451;51.226;6.412;2023-07-13T08:27:44;101040.50;;;19.63;70.34
80986;BME280;70451;51.226;6.412;2023-07-13T08:29:59;101034.94;;;19.66;70.43
80986;BME280;70451;51.226;6.412;2023-07-13T08:32:15;101040.13;;;19.68;69.41
80986;BME280;70451;51.226;6.412;2023-07-13T08:34:30;101027.75;;;20.19;69.41
80986;BME280;70451;51.226;6.412;2023-07-13T08:36:45;101027.88;;;20.59;68.49
80986;BME280;70451;51.226;6.412;2023-07-13T08:39:01;101034.66;;;20.52;67.88
80986;BME280;70451;51.226;6.412;2023-07-13T08:41:17;101031.91;;;20.63;67.70
80986;BME280;70451;51.226;6.412;2023-07-13T08:43:35;101028.59;;;20.41;67.32
80986;BME280;70451;51.226;6.412;2023-07-13T08:46:12;101031.13;;;20.42;67.58
80986;BME280;70451;51.226;6.412;2023-07-13T08:48:33;101021.78;;;19.97;67.21
80986;BME280;70451;51.226;6.412;2023-07-13T08:51:04;101028.66;;;20.29;68.25
80986;BME280;70451;51.226;6.412;2023-07-13T08:53:33;101026.88;;;20.60;68.74
80986;BME280;70451;51.226;6.412;2023-07-13T08:55:55;101018.22;;;20.58;66.98
80986;BME280;70451;51.226;6.412;2023-07-13T08:58:14;101028.91;;;20.47;67.44
80986;BME280;70451;51.226;6.412;2023-07-13T09:00:54;101027.75;;;20.40;68.36
80986;BME280;70451;51.226;6.412;2023-07-13T09:03:29;101034.88;;;20.40;67.70
80986;BME280;70451;51.226;6.412;2023-07-13T09:05:51;101029.56;;;20.40;67.65
80986;BME280;70451;51.226;6.412;2023-07-13T09:10:46;101033.34;;;20.37;66.70
80986;BME280;70451;51.226;6.412;2023-07-13T09:13:43;101031.47;;;20.58;67.74
80986;BME280;70451;51.226;6.412;2023-07-13T09:16:03;101038.66;;;20.47;66.74
80986;BME280;70451;51.226;6.412;2023-07-13T09:18:23;101036.75;;;20.28;67.60
80986;BME280;70451;51.226;6.412;2023-07-13T09:21:03;101038.94;;;20.23;67.61
80986;BME280;70451;51.226;6.412;2023-07-13T09:23:23;101033.00;;;20.30;68.38
80986;BME280;70451;51.226;6.412;2023-07-13T09:25:40;101037.66;;;20.68;66.05
80986;BME280;70451;51.226;6.412;2023-07-13T09:28:02;101038.56;;;20.98;64.96
80986;BME280;70451;51.226;6.412;2023-07-13T09:30:32;101040.47;;;21.17;63.72
80986;BME280;70451;51.226;6.412;2023-07-13T09:32:52;101041.88;;;21.40;63.50
80986;BME280;70451;51.226;6.412;2023-07-13T09:35:12;101042.84;;;21.20;64.46
80986;BME280;70451;51.226;6.412;2023-07-13T09:37:32;101042.72;;;21.21;63.07
80986;BME280;70451;51.226;6.412;2023-07-13T09:39:49;101039.53;;;20.97;63.66
80986;BME280;70451;51.226;6.412;2023-07-13T09:42:20;101038.09;;;20.74;64.73
80986;BME280;70451;51.226;6.412;2023-07-13T09:44:50;101041.25;;;21.07;63.53
80986;BME280;70451;51.226;6.412;2023-07-13T09:47:27;101036.03;;;21.36;63.91
80986;BME280;70451;51.226;6.412;2023-07-13T09:49:44;101045.81;;;20.86;64.12
80986;BME280;70451;51.226;6.412;2023-07-13T09:52:11;101040.19;;;21.39;64.94
80986;BME280;70451;51.226;6.412;2023-07-13T09:54:27;101039.53;;;21.66;63.39
80986;BME280;70451;51.226;6.412;2023-07-13T09:56:42;101039.94;;;21.71;61.39
80986;BME280;70451;51.226;6.412;2023-07-13T09:58:58;101037.13;;;21.53;62.62
80986;BME280;70451;51.226;6.412;2023-07-13T10:01:13;101033.63;;;21.91;63.13
80986;BME280;70451;51.226;6.412;2023-07-13T10:03:31;101034.75;;;21.40;61.31
80986;BME280;70451;51.226;6.412;2023-07-13T10:05:52;101042.72;;;21.40;61.72
80986;BME280;70451;51.226;6.412;2023-07-13T10:08:21;101044.56;;;21.78;62.03
80986;BME280;70451;51.226;6.412;2023-07-13T10:10:37;101046.09;;;22.00;61.49
80986;BME280;70451;51.226;6.412;2023-07-13T10:12:52;101048.44;;;21.84;59.92
80986;BME280;70451;51.226;6.412;2023-07-13T10:15:14;101044.97;;;21.93;61.93
80986;BME280;70451;51.226;6.412;2023-07-13T10:17:31;101059.09;;;21.65;62.67
80986;BME280;70451;51.226;6.412;2023-07-13T10:19:47;101049.84;;;21.30;61.94
80986;BME280;70451;51.226;6.412;2023-07-13T10:22:22;101049.63;;;21.13;63.92
80986;BME280;70451;51.226;6.412;2023-07-13T10:24:39;101058.25;;;21.45;62.46
80986;BME280;70451;51.226;6.412;2023-07-13T10:27:00;101049.78;;;22.36;61.36
80986;BME280;70451;51.226;6.412;2023-07-13T10:29:17;101046.53;;;22.42;58.75
80986;BME280;70451;51.226;6.412;2023-07-13T10:31:37;101051.22;;;22.21;59.83
80986;BME280;70451;51.226;6.412;2023-07-13T10:33:53;101047.59;;;22.22;58.87
80986;BME280;70451;51.226;6.412;2023-07-13T10:36:20;101060.28;;;22.75;57.85
80986;BME280;70451;51.226;6.412;2023-07-13T10:38:39;101061.19;;;22.00;58.37
80986;BME280;70451;51.226;6.412;2023-07-13T10:41:01;101061.94;;;22.39;58.54
80986;BME280;70451;51.226;6.412;2023-07-13T10:43:22;101050.28;;;22.59;58.02
80986;BME280;70451;51.226;6.412;2023-07-13T10:45:39;101048.97;;;23.00;58.70
80986;BME280;70451;51.226;6.412;2023-07-13T10:47:55;101050.56;;;23.11;57.92
80986;BME280;70451;51.226;6.412;2023-07-13T10:50:20;101050.47;;;23.02;57.21
80986;BME280;70451;51.226;6.412;2023-07-13T10:52:49;101053.78;;;22.50;58.56
80986;BME280;70451;51.226;6.412;2023-07-13T10:58:13;101058.66;;;21.88;58.64
80986;BME280;70451;51.226;6.412;2023-07-13T11:00:32;101061.47;;;21.97;58.22
80986;BME280;70451;51.226;6.412;2023-07-13T11:02:59;101060.16;;;22.66;58.05
80986;BME280;70451;51.226;6.412;2023-07-13T11:05:27;101061.63;;;22.88;57.56
80986;BME280;70451;51.226;6.412;2023-07-13T11:07:56;101050.00;;;22.06;56.95
80986;BME280;70451;51.226;6.412;2023-07-13T11:10:52;101041.59;;;22.10;58.11
80986;BME280;70451;51.226;6.412;2023-07-13T11:13:39;101052.00;;;22.87;57.24
80986;BME280;70451;51.226;6.412;2023-07-13T11:16:32;101042.22;;;22.78;56.08
80986;BME280;70451;51.226;6.412;2023-07-13T11:21:22;101039.78;;;23.12;54.40
80986;BME280;70451;51.226;6.412;2023-07-13T11:23:43;101038.66;;;23.15;53.85
80986;BME280;70451;51.226;6.412;2023-07-13T11:26:00;101038.50;;;23.34;55.52
80986;BME280;70451;51.226;6.412;2023-07-13T11:28:21;101042.81;;;23.17;52.95
80986;BME280;70451;51.226;6.412;2023-07-13T11:30:49;101042.78;;;23.27;53.51
80986;BME280;70451;51.226;6.412;2023-07-13T11:35:37;101030.47;;;23.43;53.56
80986;BME280;70451;51.226;6.412;2023-07-13T11:37:55;101037.03;;;23.49;54.86
80986;BME280;70451;51.226;6.412;2023-07-13T11:40:14;101031.16;;;23.63;53.44
80986;BME280;70451;51.226;6.412;2023-07-13T11:42:30;101039.03;;;23.91;52.42
80986;BME280;70451;51.226;6.412;2023-07-13T11:44:48;101024.66;;;24.09;54.13
80986;BME280;70451;51.226;6.412;2023-07-13T11:47:14;101024.50;;;24.29;52.86
80986;BME280;70451;51.226;6.412;2023-07-13T11:49:43;101024.66;;;24.09;52.21
80986;BME280;70451;51.226;6.412;2023-07-13T11:51:59;101034.88;;;23.53;52.82
80986;BME280;70451;51.226;6.412;2023-07-13T11:54:24;101031.31;;;23.44;54.52
80986;BME280;70451;51.226;6.412;2023-07-13T11:56:41;101029.72;;;23.51;53.41
80986;BME280;70451;51.226;6.412;2023-07-13T11:58:57;101019.47;;;23.82;52.77
80986;BME280;70451;51.226;6.412;2023-07-13T12:01:20;101028.66;;;24.05;52.52
80986;BME280;70451;51.226;6.412;2023-07-13T12:03:39;101035.91;;;23.52;50.70
80986;BME280;70451;51.226;6.412;2023-07-13T12:05:57;101027.09;;;23.41;53.92
80986;BME280;70451;51.226;6.412;2023-07-13T12:08:16;101031.59;;;23.41;52.47
80986;BME280;70451;51.226;6.412;2023-07-13T12:10:33;101021.56;;;23.53;52.09
80986;BME280;70451;51.226;6.412;2023-07-13T12:13:02;101027.25;;;23.75;52.63
80986;BME280;70451;51.226;6.412;2023-07-13T12:15:19;101022.84;;;23.66;51.69
80986;BME280;70451;51.226;6.412;2023-07-13T12:17:34;101033.28;;;23.42;50.94
80986;BME280;70451;51.226;6.412;2023-07-13T12:19:52;101026.13;;;23.60;52.96